Tipperary, Ireland
Current Conditions -  °F | °C
As of 1:30 AM on Wednesday 22 Oct 2014 (Local Time) from EINN Reporting Station
Broken Clouds Broken Clouds  
Wind Chill: 52°   Ceiling: 4000
Heat Index: 52°   Visibility: 6mi
Dew Point: 37°   Wind: 9mph
Humidity: 58%   Direction: 250°WSW
Pressure: 30.33"   Gusts: NA
Location:  52.49°N, 8.17°W
Report Text: EINN 220130Z 25008KT 9999 FEW030 BKN040 11/03 Q1027 NOSIG
Loading
Personal Weather Stations






























Interactive Weather Map
Tropical Storm Tracking
New forecast layout! Learn more

10-Day Weather Forecast

Advertisements
Track Severe Weather on mobile